Time;durP1;ratioP1;P1;durP2;ratioP2;P2;SDS_P1;SDS_P2;PMS_P1;PMS_P2;Temp;Humidity;BMP_temperature;BMP_pressure;BME280_temperature;BME280_humidity;BME280_pressure;Samples;Min_cycle;Max_cycle;Signal;HPM_P1;HPM_P2
2022/08/06 00:02:09;;;;;;;1999.90;999.90;;;;;;;22.93;100.00;99583.88;5055769;28;20171;-51
2022/08/06 00:04:55;;;;;;;1999.90;999.90;;;;;;;22.87;100.00;99566.50;5050910;28;20076;-50
2022/08/06 00:07:39;;;;;;;1999.90;999.90;;;;;;;22.80;100.00;99564.44;5053863;28;20166;-50
2022/08/06 00:10:23;;;;;;;1999.90;999.90;;;;;;;22.89;100.00;99568.22;5052652;28;20055;-50
2022/08/06 00:13:08;;;;;;;1999.90;999.90;;;;;;;22.82;100.00;99563.38;5053441;28;20548;-51
2022/08/06 00:15:54;;;;;;;1999.90;999.90;;;;;;;22.72;100.00;99548.22;5052002;28;20091;-51
2022/08/06 00:18:38;;;;;;;1999.90;999.90;;;;;;;22.75;100.00;99556.81;5053048;28;20052;-51
2022/08/06 00:21:22;;;;;;;1999.90;999.90;;;;;;;22.70;100.00;99560.81;5054276;28;20051;-51
2022/08/06 00:24:07;;;;;;;1999.90;999.90;;;;;;;22.61;100.00;99568.56;5052534;28;20060;-49
2022/08/06 00:26:52;;;;;;;1999.90;999.90;;;;;;;22.44;100.00;99574.38;5052266;28;20044;-51
2022/08/06 00:29:36;;;;;;;1999.90;999.90;;;;;;;22.22;100.00;99550.34;5053842;28;20080;-50
2022/08/06 00:32:21;;;;;;;1999.90;999.90;;;;;;;22.34;100.00;99579.59;5054218;28;20041;-51
2022/08/06 00:35:05;;;;;;;1999.90;999.90;;;;;;;22.18;100.00;99573.75;5053686;28;20056;-51
2022/08/06 00:37:50;;;;;;;1999.90;999.90;;;;;;;22.08;100.00;99583.38;5051888;28;20154;-50
2022/08/06 00:40:35;;;;;;;1999.90;999.90;;;;;;;21.80;100.00;99600.59;5053646;28;20109;-51
2022/08/06 00:43:20;;;;;;;1999.90;999.90;;;;;;;21.77;100.00;99596.34;5055366;28;20076;-50
2022/08/06 00:46:04;;;;;;;1999.90;999.90;;;;;;;21.78;100.00;99598.06;5058165;28;20075;-50
2022/08/06 00:48:49;;;;;;;1999.90;999.90;;;;;;;21.77;100.00;99598.16;5055782;28;20381;-50
2022/08/06 00:51:34;;;;;;;1999.90;999.90;;;;;;;21.70;100.00;99603.09;5055021;28;20121;-50
2022/08/06 00:54:20;;;;;;;1999.90;999.90;;;;;;;21.78;100.00;99611.38;5057661;28;20095;-50
2022/08/06 00:57:05;;;;;;;1999.90;999.90;;;;;;;21.78;100.00;99622.06;5055778;28;20052;-51
2022/08/06 00:59:49;;;;;;;1999.90;999.90;;;;;;;21.77;100.00;99636.31;5056845;28;20782;-50
2022/08/06 01:02:34;;;;;;;1999.90;999.90;;;;;;;21.63;100.00;99648.00;5058426;28;20152;-50
2022/08/06 01:05:18;;;;;;;1999.90;999.90;;;;;;;21.64;100.00;99672.84;5057038;28;20053;-50
2022/08/06 01:08:03;;;;;;;1999.90;999.90;;;;;;;21.53;100.00;99662.97;5056610;28;20045;-50
2022/08/06 01:10:47;;;;;;;1999.90;999.90;;;;;;;21.46;100.00;99686.53;5057035;28;20079;-49
2022/08/06 01:13:32;;;;;;;1999.90;999.90;;;;;;;21.45;100.00;99698.16;5056306;28;20047;-49
2022/08/06 01:16:34;;;;;;;1999.90;999.90;;;;;;;21.44;100.00;99711.59;5055101;28;20045;-50
2022/08/06 01:19:24;;;;;;;1999.90;999.90;;;;;;;21.27;100.00;99712.75;5056869;28;20778;-49
2022/08/06 01:22:44;;;;;;;1999.90;999.90;;;;;;;21.32;100.00;99720.41;5055600;28;20037;-50
2022/08/06 01:25:53;;;;;;;1999.90;999.90;;;;;;;21.29;100.00;99724.16;5055370;28;20044;-50
2022/08/06 01:28:45;;;;;;;1999.90;999.90;;;;;;;21.33;100.00;99730.13;5056887;28;20037;-50
2022/08/06 01:31:41;;;;;;;1999.90;999.90;;;;;;;21.07;100.00;99721.31;5054270;28;21886;-50
2022/08/06 01:34:37;;;;;;;1999.90;999.90;;;;;;;21.07;100.00;99731.97;5055048;28;20098;-50
2022/08/06 01:38:05;;;;;;;1999.90;999.90;;;;;;;20.88;100.00;99737.69;5056379;28;20048;-50
2022/08/06 01:40:52;;;;;;;1999.90;999.90;;;;;;;20.60;100.00;99725.41;4990607;28;20050;-50
2022/08/06 01:43:39;;;;;;;1999.90;999.90;;;;;;;20.50;100.00;99739.28;5000904;28;20065;-51
2022/08/06 01:46:24;;;;;;;1999.90;999.90;;;;;;;20.42;100.00;99740.78;5050819;28;20071;-51
2022/08/06 01:49:10;;;;;;;1999.90;999.90;;;;;;;20.24;100.00;99746.34;5054366;28;20455;-49
2022/08/06 01:51:58;;;;;;;1999.90;999.90;;;;;;;20.16;100.00;99735.38;5055399;28;20049;-50
2022/08/06 01:54:47;;;;;;;1999.90;999.90;;;;;;;20.04;100.00;99729.06;5054536;28;20157;-51
2022/08/06 01:57:34;;;;;;;1999.90;999.90;;;;;;;19.96;100.00;99726.06;5055078;28;20073;-51
2022/08/06 02:00:20;;;;;;;1999.90;999.90;;;;;;;19.93;100.00;99734.22;5054851;28;20541;-51
2022/08/06 02:03:29;;;;;;;1999.90;999.90;;;;;;;19.91;100.00;99717.53;5054250;28;20456;-50
2022/08/06 02:06:18;;;;;;;1999.90;999.90;;;;;;;19.76;100.00;99734.44;5057952;28;20054;-50
2022/08/06 02:09:07;;;;;;;1999.90;999.90;;;;;;;19.83;100.00;99744.59;5057190;28;20059;-51
2022/08/06 02:12:04;;;;;;;1999.90;999.90;;;;;;;19.68;100.00;99739.41;5055319;28;21781;-51
2022/08/06 02:14:55;;;;;;;1999.90;999.90;;;;;;;19.60;100.00;99718.63;5056378;28;20136;-51
2022/08/06 02:17:45;;;;;;;1999.90;999.90;;;;;;;19.49;100.00;99706.00;5056732;28;20393;-51
2022/08/06 02:20:38;;;;;;;1999.90;999.90;;;;;;;19.45;100.00;99712.47;5055896;28;20078;-51
2022/08/06 02:23:25;;;;;;;1999.90;999.90;;;;;;;19.43;100.00;99698.44;5051851;28;20051;-51
2022/08/06 02:26:11;;;;;;;1999.90;999.90;;;;;;;19.33;100.00;99713.25;5052861;28;20068;-51
2022/08/06 02:28:58;;;;;;;1999.90;999.90;;;;;;;19.29;100.00;99712.59;5054773;28;20052;-50
2022/08/06 02:31:44;;;;;;;1999.90;999.90;;;;;;;19.30;100.00;99700.16;5057005;28;20060;-52
2022/08/06 02:34:28;;;;;;;1999.90;999.90;;;;;;;19.25;100.00;99702.25;5059519;28;20050;-52
2022/08/06 02:37:20;;;;;;;1999.90;999.90;;;;;;;19.22;100.00;99713.91;5058305;28;20133;-50
2022/08/06 02:40:22;;;;;;;1999.90;999.90;;;;;;;19.26;100.00;99714.56;5058627;28;20051;-51
2022/08/06 02:43:12;;;;;;;1999.90;999.90;;;;;;;19.26;100.00;99726.03;5060567;28;20098;-50
2022/08/06 02:46:11;;;;;;;1999.90;999.90;;;;;;;19.23;100.00;99746.63;5058557;28;20102;-50
2022/08/06 02:49:03;;;;;;;1999.90;999.90;;;;;;;19.28;100.00;99739.25;5058177;28;20384;-50
2022/08/06 02:52:03;;;;;;;1999.90;999.90;;;;;;;19.33;100.00;99753.06;5059226;28;20098;-50
2022/08/06 02:54:55;;;;;;;1999.90;999.90;;;;;;;19.28;100.00;99757.81;5058968;28;20048;-50
2022/08/06 02:57:49;;;;;;;1999.90;999.90;;;;;;;19.26;100.00;99773.84;5057594;28;20086;-50
2022/08/06 03:00:38;;;;;;;1999.90;999.90;;;;;;;19.26;100.00;99784.44;5056768;28;20053;-50
2022/08/06 03:03:23;;;;;;;1999.90;999.90;;;;;;;19.27;100.00;99788.84;5056192;28;20495;-50
2022/08/06 03:06:12;;;;;;;1999.90;999.90;;;;;;;19.18;100.00;99784.09;5059026;28;20503;-50
2022/08/06 03:08:58;;;;;;;1999.90;999.90;;;;;;;19.27;100.00;99803.88;5057115;28;20066;-50
2022/08/06 03:11:45;;;;;;;1999.90;999.90;;;;;;;19.23;100.00;99802.38;5058915;28;20056;-50
2022/08/06 03:14:32;;;;;;;1999.90;999.90;;;;;;;19.32;100.00;99810.63;5058694;28;20059;-50
2022/08/06 03:17:18;;;;;;;1999.90;999.90;;;;;;;19.19;100.00;99812.34;5058051;28;20724;-49
2022/08/06 03:20:04;;;;;;;1999.90;999.90;;;;;;;19.13;100.00;99804.72;5059665;28;20506;-50
2022/08/06 03:22:51;;;;;;;1999.90;999.90;;;;;;;19.18;100.00;99804.47;5057688;28;20052;-50
2022/08/06 03:25:39;;;;;;;1999.90;999.90;;;;;;;19.14;100.00;99815.28;5057214;28;20048;-50
2022/08/06 03:28:25;;;;;;;1999.90;999.90;;;;;;;19.14;100.00;99825.00;5059785;28;20113;-50
2022/08/06 03:31:10;;;;;;;1999.90;999.90;;;;;;;19.17;100.00;99830.13;5058670;28;20059;-50
2022/08/06 03:33:57;;;;;;;1999.90;999.90;;;;;;;19.15;100.00;99843.53;5059157;28;20454;-50
2022/08/06 03:36:42;;;;;;;1999.90;999.90;;;;;;;19.14;100.00;99851.56;5057670;28;20138;-50
2022/08/06 03:39:28;;;;;;;1999.90;999.90;;;;;;;19.13;100.00;99844.56;5058078;28;20040;-50
2022/08/06 03:42:13;;;;;;;1999.90;999.90;;;;;;;19.04;100.00;99848.59;5058576;28;20043;-50
2022/08/06 03:44:58;;;;;;;1999.90;999.90;;;;;;;19.20;100.00;99856.50;5059592;28;20059;-50
2022/08/06 03:47:51;;;;;;;1999.90;999.90;;;;;;;19.13;100.00;99855.16;5053521;28;20658;-49
2022/08/06 03:50:43;;;;;;;1999.90;999.90;;;;;;;19.11;100.00;99851.78;5053443;28;20075;-50
2022/08/06 03:53:29;;;;;;;1999.90;999.90;;;;;;;19.23;100.00;99861.63;5053950;28;20056;-50
2022/08/06 03:56:22;;;;;;;1999.90;999.90;;;;;;;19.19;100.00;99867.22;5053949;28;20565;-50
2022/08/06 03:59:08;;;;;;;1999.90;999.90;;;;;;;19.15;100.00;99872.72;5054207;28;20220;-50
2022/08/06 04:01:56;;;;;;;1999.90;999.90;;;;;;;18.87;100.00;99873.47;5052846;28;20075;-50
2022/08/06 04:04:42;;;;;;;1999.90;999.90;;;;;;;18.85;100.00;99877.19;5054651;28;20056;-50
2022/08/06 04:07:29;;;;;;;1999.90;999.90;;;;;;;18.87;100.00;99884.09;5052348;28;20071;-50
2022/08/06 04:10:15;;;;;;;1999.90;999.90;;;;;;;18.76;100.00;99885.69;5056047;28;20106;-50
2022/08/06 04:13:01;;;;;;;1999.90;999.90;;;;;;;18.83;100.00;99890.53;5051982;28;20091;-50
2022/08/06 04:15:46;;;;;;;1999.90;999.90;;;;;;;18.89;100.00;99887.53;5053241;28;20117;-49
2022/08/06 04:18:35;;;;;;;1999.90;999.90;;;;;;;18.76;100.00;99898.94;5054417;28;20037;-50
2022/08/06 04:21:22;;;;;;;1999.90;999.90;;;;;;;18.48;100.00;99897.81;5053718;28;20227;-50
2022/08/06 04:24:06;;;;;;;1999.90;999.90;;;;;;;18.33;100.00;99885.41;5056494;28;20056;-50
2022/08/06 04:26:53;;;;;;;1999.90;999.90;;;;;;;18.30;100.00;99885.59;5052923;28;20094;-50
2022/08/06 04:29:39;;;;;;;1999.90;999.90;;;;;;;18.29;100.00;99890.03;5053677;28;20051;-50
2022/08/06 04:32:25;;;;;;;1999.90;999.90;;;;;;;18.28;100.00;99890.97;5054686;28;20090;-50
2022/08/06 04:35:11;;;;;;;1999.90;999.90;;;;;;;18.05;100.00;99888.75;5052995;28;20086;-50
2022/08/06 04:37:55;;;;;;;1999.90;999.90;;;;;;;18.04;100.00;99877.28;5052914;28;20174;-50
2022/08/06 04:40:40;;;;;;;1999.90;999.90;;;;;;;18.09;100.00;99883.16;5052674;28;20076;-50
2022/08/06 04:43:26;;;;;;;1999.90;999.90;;;;;;;18.27;100.00;99904.31;5054863;28;20087;-50
2022/08/06 04:46:11;;;;;;;1999.90;999.90;;;;;;;18.24;100.00;99912.44;5052720;28;20075;-50
2022/08/06 04:48:55;;;;;;;1999.90;999.90;;;;;;;18.16;100.00;99929.59;5046174;28;20133;-50
2022/08/06 04:51:45;;;;;;;1999.90;999.90;;;;;;;18.18;100.00;99921.59;5050059;28;20130;-50
2022/08/06 04:54:29;;;;;;;1999.90;999.90;;;;;;;17.88;100.00;99922.31;5050658;28;20067;-50
2022/08/06 04:57:14;;;;;;;1999.90;999.90;;;;;;;17.85;100.00;99924.25;5052364;28;20079;-49
2022/08/06 04:59:59;;;;;;;1999.90;999.90;;;;;;;17.74;100.00;99924.78;5051037;28;20459;-49
2022/08/06 05:02:44;;;;;;;1999.90;999.90;;;;;;;17.76;100.00;99944.09;5055875;28;20110;-50
2022/08/06 05:05:31;;;;;;;1999.90;999.90;;;;;;;17.61;100.00;99956.34;5058116;28;20055;-50
2022/08/06 05:08:18;;;;;;;1999.90;999.90;;;;;;;17.44;100.00;99969.59;5054104;28;20075;-50
2022/08/06 05:11:11;;;;;;;1999.90;999.90;;;;;;;17.34;100.00;99968.34;5054917;28;20137;-49
2022/08/06 05:14:01;;;;;;;1999.90;999.90;;;;;;;17.42;100.00;99972.34;5055849;28;20049;-49
2022/08/06 05:16:48;;;;;;;1999.90;999.90;;;;;;;17.16;100.00;99978.94;5055850;28;20764;-50
2022/08/06 05:19:46;;;;;;;1999.90;999.90;;;;;;;17.18;100.00;99987.63;5056865;28;20099;-49
2022/08/06 05:22:32;;;;;;;1999.90;999.90;;;;;;;17.20;100.00;100006.09;5057365;28;20128;-50
2022/08/06 05:25:17;;;;;;;1999.90;999.90;;;;;;;17.13;100.00;100008.19;5060214;28;20474;-50
2022/08/06 05:28:02;;;;;;;1999.90;999.90;;;;;;;17.12;100.00;100024.97;5057327;28;20047;-50
2022/08/06 05:30:48;;;;;;;1999.90;999.90;;;;;;;17.17;100.00;100038.88;5057990;28;20110;-49
2022/08/06 05:33:38;;;;;;;1999.90;999.90;;;;;;;17.08;100.00;100044.59;5058013;28;20090;-49
2022/08/06 05:36:23;;;;;;;1999.90;999.90;;;;;;;17.10;100.00;100053.31;5054545;28;20561;-49
2022/08/06 05:39:08;;;;;;;1999.90;999.90;;;;;;;16.91;100.00;100065.72;5056241;28;20083;-50
2022/08/06 05:41:52;;;;;;;1999.90;999.90;;;;;;;16.75;100.00;100074.34;5055105;28;20130;-50
2022/08/06 05:44:36;;;;;;;1999.90;999.90;;;;;;;16.57;100.00;100069.88;5058527;28;20067;-50
2022/08/06 05:47:26;;;;;;;1999.90;999.90;;;;;;;16.58;100.00;100088.31;5056425;28;20072;-50
2022/08/06 05:50:17;;;;;;;1999.90;999.90;;;;;;;16.65;100.00;100095.97;5056576;28;20075;-50
2022/08/06 05:53:11;;;;;;;1999.90;999.90;;;;;;;16.64;100.00;100099.53;5057903;28;20067;-50
2022/08/06 05:55:59;;;;;;;1999.90;999.90;;;;;;;16.63;100.00;100098.69;5055003;28;20060;-50
2022/08/06 05:58:51;;;;;;;1999.90;999.90;;;;;;;16.46;100.00;100106.53;5054321;28;20099;-51
2022/08/06 06:01:36;;;;;;;1999.90;999.90;;;;;;;16.43;100.00;100104.88;5050203;28;20125;-50
2022/08/06 06:04:23;;;;;;;1999.90;999.90;;;;;;;16.47;100.00;100118.81;5051371;28;20114;-50
2022/08/06 06:07:08;;;;;;;1999.90;999.90;;;;;;;16.68;100.00;100128.44;5055477;28;20510;-50
2022/08/06 06:09:55;;;;;;;1999.90;999.90;;;;;;;16.39;100.00;100124.44;5057319;28;20075;-50
2022/08/06 06:12:40;;;;;;;1999.90;999.90;;;;;;;16.52;100.00;100132.69;5055607;28;20044;-50
2022/08/06 06:15:26;;;;;;;1999.90;999.90;;;;;;;16.42;100.00;100136.66;5057457;28;20083;-50
2022/08/06 06:18:31;;;;;;;1999.90;999.90;;;;;;;16.43;100.00;100138.38;5055814;28;20575;-50
2022/08/06 06:21:45;;;;;;;1999.90;999.90;;;;;;;16.26;100.00;100149.69;5052636;28;20121;-50
2022/08/06 06:24:40;;;;;;;1999.90;999.90;;;;;;;16.09;100.00;100159.19;5055121;28;20041;-49
2022/08/06 06:27:41;;;;;;;1999.90;999.90;;;;;;;16.11;100.00;100167.03;5057771;28;20129;-51
2022/08/06 06:30:35;;;;;;;1999.90;999.90;;;;;;;16.01;100.00;100174.50;5058337;28;20434;-53
2022/08/06 06:33:36;;;;;;;1999.90;999.90;;;;;;;16.00;100.00;100170.16;5061041;28;20502;-50
2022/08/06 06:36:39;;;;;;;1999.90;999.90;;;;;;;15.93;100.00;100163.41;5057023;28;20091;-50
2022/08/06 06:39:30;;;;;;;1999.90;999.90;;;;;;;15.93;100.00;100181.03;5055991;28;20993;-50
2022/08/06 06:42:24;;;;;;;1999.90;999.90;;;;;;;15.98;100.00;100179.03;5056186;28;20103;-50
2022/08/06 06:45:20;;;;;;;1999.90;999.90;;;;;;;15.95;100.00;100185.31;5055657;28;20071;-50
2022/08/06 06:48:19;;;;;;;1999.90;999.90;;;;;;;16.04;100.00;100182.28;5051321;28;20052;-50
2022/08/06 06:51:10;;;;;;;1999.90;999.90;;;;;;;15.94;100.00;100178.31;5055825;28;20083;-50
2022/08/06 06:53:55;;;;;;;1999.90;999.90;;;;;;;16.10;100.00;100179.41;5058414;28;20513;-50
2022/08/06 06:56:45;;;;;;;1999.90;999.90;;;;;;;16.05;100.00;100176.09;5057874;28;20075;-50
2022/08/06 06:59:34;;;;;;;1999.90;999.90;;;;;;;16.18;100.00;100196.72;5058636;28;20063;-50
2022/08/06 07:02:24;;;;;;;1999.90;999.90;;;;;;;16.20;100.00;100208.09;5053979;28;20049;-50
2022/08/06 07:05:10;;;;;;;1999.90;999.90;;;;;;;16.16;100.00;100204.72;5054681;28;20148;-50
2022/08/06 07:07:57;;;;;;;1999.90;999.90;;;;;;;16.18;100.00;100215.22;5054636;28;20075;-51
2022/08/06 07:10:43;;;;;;;1999.90;999.90;;;;;;;16.19;100.00;100214.31;5052881;28;20078;-50
2022/08/06 07:13:29;;;;;;;1999.90;999.90;;;;;;;16.26;100.00;100229.81;5057100;28;20071;-50
2022/08/06 07:16:16;;;;;;;1999.90;999.90;;;;;;;16.17;100.00;100224.91;5054215;28;20056;-50
2022/08/06 07:19:03;;;;;;;1999.90;999.90;;;;;;;16.24;100.00;100230.81;5057928;28;20419;-50
2022/08/06 07:21:49;;;;;;;1999.90;999.90;;;;;;;16.49;100.00;100242.06;5055608;28;20053;-50
2022/08/06 07:24:37;;;;;;;1999.90;999.90;;;;;;;16.48;100.00;100248.28;5055324;28;20097;-50
2022/08/06 07:27:21;;;;;;;1999.90;999.90;;;;;;;16.36;100.00;100260.22;5053258;28;20348;-50
2022/08/06 07:30:07;;;;;;;1999.90;999.90;;;;;;;16.39;100.00;100282.19;5058249;28;20083;-50
2022/08/06 07:32:52;;;;;;;1999.90;999.90;;;;;;;16.27;100.00;100265.91;5053684;28;20626;-50
2022/08/06 07:35:40;;;;;;;1999.90;999.90;;;;;;;16.23;100.00;100271.38;5054088;28;20083;-50
2022/08/06 07:38:27;;;;;;;1999.90;999.90;;;;;;;16.21;100.00;100295.22;5053875;28;20047;-50
2022/08/06 07:41:13;;;;;;;1999.90;999.90;;;;;;;16.11;100.00;100294.72;5053378;28;20134;-50
2022/08/06 07:44:00;;;;;;;1999.90;999.90;;;;;;;16.05;100.00;100287.06;5051255;28;20048;-50
2022/08/06 07:46:49;;;;;;;1999.90;999.90;;;;;;;16.17;100.00;100288.34;5052822;28;20110;-50
2022/08/06 07:49:40;;;;;;;1999.90;999.90;;;;;;;15.95;100.00;100285.69;5051463;28;20047;-50
2022/08/06 07:52:25;;;;;;;1999.90;999.90;;;;;;;15.86;100.00;100267.59;5054023;28;20055;-50
2022/08/06 07:55:12;;;;;;;1999.90;999.90;;;;;;;15.81;100.00;100258.97;5058453;28;20049;-50
2022/08/06 07:58:00;;;;;;;1999.90;999.90;;;;;;;15.96;100.00;100258.38;5052400;28;20482;-50
2022/08/06 08:00:47;;;;;;;1999.90;999.90;;;;;;;16.01;100.00;100276.66;5057088;28;20597;-50
2022/08/06 08:06:37;;;;;;;1999.90;999.90;;;;;;;15.92;100.00;100303.44;5057360;28;20129;-50
2022/08/06 08:09:24;;;;;;;1999.90;999.90;;;;;;;15.89;100.00;100314.97;5053174;28;20079;-50
2022/08/06 08:12:11;;;;;;;1999.90;999.90;;;;;;;15.80;100.00;100310.94;5055736;28;20056;-50
2022/08/06 08:14:58;;;;;;;1999.90;999.90;;;;;;;15.64;100.00;100292.16;5046940;28;20407;-50
2022/08/06 08:17:42;;;;;;;1999.90;999.90;;;;;;;15.89;100.00;100283.28;5053257;28;20052;-50
2022/08/06 08:20:29;;;;;;;1999.90;999.90;;;;;;;15.83;100.00;100279.13;5049923;28;20115;-50
2022/08/06 08:23:15;;;;;;;1999.90;999.90;;;;;;;15.73;100.00;100316.50;5054371;28;20059;-50
2022/08/06 08:26:02;;;;;;;1999.90;999.90;;;;;;;15.96;100.00;100310.34;5052696;28;20067;-50
2022/08/06 08:28:46;;;;;;;1999.90;999.90;;;;;;;15.82;100.00;100314.38;5048846;28;20056;-49
2022/08/06 08:31:31;;;;;;;1999.90;999.90;;;;;;;15.81;100.00;100328.50;5054794;28;20123;-49
2022/08/06 08:34:16;;;;;;;1999.90;999.90;;;;;;;15.89;100.00;100339.66;5053604;28;21056;-50
2022/08/06 08:37:01;;;;;;;1999.90;999.90;;;;;;;15.65;100.00;100335.25;5051780;28;20083;-50
2022/08/06 08:39:46;;;;;;;1999.90;999.90;;;;;;;15.74;100.00;100342.00;5055038;28;20063;-50
2022/08/06 08:42:45;;;;;;;1999.90;999.90;;;;;;;15.69;100.00;100339.53;5054146;28;20087;-50
2022/08/06 08:45:30;;;;;;;1999.90;999.90;;;;;;;15.54;100.00;100329.53;5050333;28;20049;-50
2022/08/06 08:48:19;;;;;;;1999.90;999.90;;;;;;;15.61;100.00;100325.72;5054696;28;20699;-50
2022/08/06 08:51:05;;;;;;;1999.90;999.90;;;;;;;15.73;100.00;100348.19;5051724;28;20131;-49
2022/08/06 08:53:53;;;;;;;1999.90;999.90;;;;;;;15.63;100.00;100350.28;5050351;28;20121;-49
2022/08/06 08:56:38;;;;;;;1999.90;999.90;;;;;;;15.63;100.00;100359.09;5053394;28;20139;-50
2022/08/06 08:59:22;;;;;;;1999.90;999.90;;;;;;;15.69;100.00;100357.16;5049315;28;20091;-50
2022/08/06 09:02:11;;;;;;;1999.90;999.90;;;;;;;15.59;100.00;100352.16;5054998;28;20087;-50
2022/08/06 09:04:55;;;;;;;1999.90;999.90;;;;;;;15.71;100.00;100360.59;5056125;28;20119;-50
2022/08/06 09:07:40;;;;;;;1999.90;999.90;;;;;;;15.74;100.00;100371.06;5057265;28;20049;-50
2022/08/06 09:10:25;;;;;;;1999.90;999.90;;;;;;;15.93;100.00;100352.72;5058401;28;20113;-50
2022/08/06 09:13:10;;;;;;;1999.90;999.90;;;;;;;15.93;100.00;100355.38;5059828;28;20041;-49
2022/08/06 09:15:55;;;;;;;1999.90;999.90;;;;;;;15.93;100.00;100368.59;5056387;28;20055;-49
2022/08/06 09:18:40;;;;;;;1999.90;999.90;;;;;;;15.97;100.00;100378.09;5054166;28;20132;-49
2022/08/06 09:21:25;;;;;;;1999.90;999.90;;;;;;;15.96;100.00;100371.97;5054471;28;20083;-49
2022/08/06 09:24:10;;;;;;;1999.90;999.90;;;;;;;15.89;100.00;100359.88;5056887;28;20048;-49
2022/08/06 09:27:21;;;;;;;1999.90;999.90;;;;;;;16.24;100.00;100366.44;5055284;28;20045;-49
2022/08/06 09:30:07;;;;;;;1999.90;999.90;;;;;;;16.16;100.00;100373.84;5056782;28;20170;-49
2022/08/06 09:32:53;;;;;;;1999.90;999.90;;;;;;;16.24;100.00;100376.16;5053773;28;20165;-49
2022/08/06 09:35:38;;;;;;;1999.90;999.90;;;;;;;16.17;100.00;100369.41;5051385;28;20510;-50
2022/08/06 09:38:23;;;;;;;1999.90;999.90;;;;;;;16.38;100.00;100365.03;5046075;28;20121;-49
2022/08/06 09:41:12;;;;;;;1999.90;999.90;;;;;;;16.39;100.00;100374.72;5051207;28;20049;-50
2022/08/06 09:43:57;;;;;;;1999.90;999.90;;;;;;;16.32;100.00;100372.31;5057210;28;20079;-50
2022/08/06 09:46:47;;;;;;;1999.90;999.90;;;;;;;16.23;100.00;100370.03;5049195;28;20071;-49
2022/08/06 09:49:44;;;;;;;1999.90;999.90;;;;;;;16.40;100.00;100369.34;5046287;28;20081;-49
2022/08/06 09:52:28;;;;;;;1999.90;999.90;;;;;;;16.79;100.00;100358.94;5045191;28;20053;-50
2022/08/06 09:55:29;;;;;;;1999.90;999.90;;;;;;;16.98;100.00;100374.06;5052037;28;20090;-49
2022/08/06 09:58:25;;;;;;;1999.90;999.90;;;;;;;17.42;100.00;100373.88;5048621;28;20398;-49
2022/08/06 10:01:15;;;;;;;1999.90;999.90;;;;;;;17.36;100.00;100368.91;5050564;28;20056;-50
2022/08/06 10:04:00;;;;;;;1999.90;999.90;;;;;;;17.63;100.00;100364.13;5048876;28;20060;-49
2022/08/06 10:06:53;;;;;;;1999.90;999.90;;;;;;;17.75;100.00;100376.84;5048290;28;20049;-50
2022/08/06 10:09:52;;;;;;;1999.90;999.90;;;;;;;17.95;100.00;100370.63;5047359;28;20062;-50
2022/08/06 10:12:37;;;;;;;1999.90;999.90;;;;;;;17.92;100.00;100370.78;5047903;28;20122;-50
2022/08/06 10:15:30;;;;;;;1999.90;999.90;;;;;;;18.08;100.00;100369.13;5051476;28;20049;-49
2022/08/06 10:18:44;;;;;;;1999.90;999.90;;;;;;;18.56;100.00;100367.72;5052776;28;20073;-50
2022/08/06 10:21:29;;;;;;;;;;;;;;;18.49;100.00;100376.91;5050993;28;20326;-50
2022/08/06 10:24:15;;;;;;;1999.90;999.90;;;;;;;18.53;100.00;100390.88;5051223;28;19970;-50
2022/08/06 10:26:59;;;;;;;1999.90;999.90;;;;;;;18.53;100.00;100388.22;5054728;28;20048;-50
2022/08/06 10:29:49;;;;;;;1999.90;999.90;;;;;;;18.50;100.00;100398.97;5052819;28;20869;-50
2022/08/06 10:32:46;;;;;;;1999.90;999.90;;;;;;;18.65;100.00;100401.75;5046361;28;20089;-50
2022/08/06 10:35:31;;;;;;;1999.90;999.90;;;;;;;18.68;100.00;100390.09;5050471;28;20072;-50
2022/08/06 10:38:20;;;;;;;1999.90;999.90;;;;;;;19.18;100.00;100404.47;5049895;28;20052;-50
2022/08/06 10:41:08;;;;;;;1999.90;999.90;;;;;;;20.55;100.00;100396.19;5049921;28;20048;-51
2022/08/06 10:43:53;;;;;;;1999.90;999.90;;;;;;;21.73;100.00;100391.81;5048507;28;20534;-50
2022/08/06 10:46:39;;;;;;;1999.90;999.90;;;;;;;21.37;100.00;100405.59;5051176;28;20447;-51
2022/08/06 10:49:26;;;;;;;1999.90;999.90;;;;;;;20.15;100.00;100408.16;5048769;28;20135;-50
2022/08/06 10:52:12;;;;;;;1999.90;999.90;;;;;;;20.88;100.00;100406.69;5048638;28;20052;-50
2022/08/06 10:54:59;;;;;;;1999.90;999.90;;;;;;;20.66;100.00;100403.53;5048950;28;20466;-50
2022/08/06 10:57:45;;;;;;;1999.90;999.90;;;;;;;20.91;100.00;100401.19;5049843;28;20114;-50
2022/08/06 11:00:32;;;;;;;1999.90;999.90;;;;;;;21.00;100.00;100397.97;5054652;28;20084;-50
2022/08/06 11:03:31;;;;;;;1999.90;999.90;;;;;;;21.31;100.00;100390.81;5058225;28;20150;-49
2022/08/06 11:06:42;;;;;;;1999.90;999.90;;;;;;;21.22;100.00;100402.91;5058996;28;20044;-50
2022/08/06 11:09:36;;;;;;;1999.90;999.90;;;;;;;21.02;100.00;100392.56;5056235;28;20717;-50
2022/08/06 11:12:38;;;;;;;1999.90;999.90;;;;;;;21.26;100.00;100402.72;5056177;28;20843;-50
2022/08/06 11:15:24;;;;;;;1999.90;999.90;;;;;;;21.52;100.00;100386.03;5054390;28;20138;-51
2022/08/06 11:18:11;;;;;;;1999.90;999.90;;;;;;;22.01;100.00;100390.13;5052146;28;20047;-51
2022/08/06 11:20:59;;;;;;;1999.90;999.90;;;;;;;22.50;100.00;100379.81;5045788;28;20507;-52
2022/08/06 11:23:44;;;;;;;1999.90;999.90;;;;;;;21.81;100.00;100384.22;5051071;28;20440;-50
2022/08/06 11:26:47;;;;;;;1999.90;999.90;;;;;;;21.34;100.00;100382.63;5049702;28;20154;-52
2022/08/06 11:30:07;;;;;;;1999.90;999.90;;;;;;;20.88;100.00;100384.53;5046022;28;20396;-50
2022/08/06 11:32:53;;;;;;;1999.90;999.90;;;;;;;21.70;100.00;100371.53;5045498;28;20126;-51
2022/08/06 11:35:37;;;;;;;1999.90;999.90;;;;;;;21.43;100.00;100379.44;5053800;28;20076;-51
2022/08/06 11:38:47;;;;;;;1999.90;999.90;;;;;;;22.85;100.00;100380.16;5050417;28;21016;-51
2022/08/06 11:41:44;;;;;;;1999.90;999.90;;;;;;;22.33;100.00;100374.75;5057502;28;20060;-50
2022/08/06 11:44:37;;;;;;;1999.90;999.90;;;;;;;21.90;100.00;100388.09;5055354;28;20530;-50
2022/08/06 11:47:23;;;;;;;1999.90;999.90;;;;;;;21.91;100.00;100382.69;5052272;28;20055;-51
2022/08/06 11:50:23;;;;;;;1999.90;999.90;;;;;;;21.65;100.00;100378.13;5049792;28;20079;-50
2022/08/06 11:53:07;;;;;;;1999.90;999.90;;;;;;;21.13;100.00;100392.78;5052572;28;20068;-51
2022/08/06 11:56:05;;;;;;;1999.90;999.90;;;;;;;21.47;100.00;100382.78;5053023;28;20130;-50
2022/08/06 11:59:09;;;;;;;1999.90;999.90;;;;;;;21.54;100.00;100389.44;5055630;28;20055;-50
2022/08/06 12:01:54;;;;;;;1999.90;999.90;;;;;;;21.93;100.00;100380.75;5057126;28;20134;-50
2022/08/06 12:04:47;;;;;;;1999.90;999.90;;;;;;;22.12;100.00;100379.59;5061281;28;20051;-50
2022/08/06 12:07:34;;;;;;;1999.90;999.90;;;;;;;21.64;100.00;100373.72;5057840;28;20045;-51
2022/08/06 12:10:18;;;;;;;1999.90;999.90;;;;;;;21.58;100.00;100382.09;5051801;28;20128;-50
2022/08/06 12:13:03;;;;;;;1999.90;999.90;;;;;;;21.73;100.00;100374.97;5054411;28;20087;-50
2022/08/06 12:15:47;;;;;;;1999.90;999.90;;;;;;;21.35;100.00;100376.41;5055892;28;20059;-51
2022/08/06 12:18:38;;;;;;;1999.90;999.90;;;;;;;21.29;100.00;100387.41;5050622;28;21234;-50
2022/08/06 12:21:24;;;;;;;1999.90;999.90;;;;;;;21.62;100.00;100376.50;5055707;28;20049;-51